Time;durP1;ratioP1;P1;durP2;ratioP2;P2;SDS_P1;SDS_P2;PMS_P1;PMS_P2;Temp;Humidity;BMP_temperature;BMP_pressure;BME280_temperature;BME280_humidity;BME280_pressure;Samples;Min_cycle;Max_cycle;Signal;HPM_P1;HPM_P2
2024/04/15 00:04:47;;;;;;;1999.90;999.90;;;;;;;10.77;91.46;101422.41;11284577;26;20446;-67
2024/04/15 00:09:50;;;;;;;1999.90;999.90;;;;;;;10.55;93.81;101425.19;11252723;26;20030;-67
2024/04/15 00:14:52;;;;;;;1999.90;999.90;;;;;;;10.69;93.26;101414.09;11283998;26;20008;-67
2024/04/15 00:19:55;;;;;;;1999.90;999.90;;;;;;;10.62;92.84;101409.22;11252786;26;20363;-67
2024/04/15 00:24:57;;;;;;;1999.90;999.90;;;;;;;10.40;92.32;101399.75;11284025;26;20009;-67
2024/04/15 00:30:00;;;;;;;1999.90;999.90;;;;;;;10.47;92.74;101380.22;11253087;26;20076;-67
2024/04/15 00:35:02;;;;;;;1999.90;999.90;;;;;;;10.30;93.71;101369.66;11259523;26;20071;-67
2024/04/15 00:40:06;;;;;;;1999.90;999.90;;;;;;;9.96;95.24;101358.16;11290254;26;20009;-67
2024/04/15 00:45:31;;;;;;;1999.90;999.90;;;;;;;9.77;95.91;101353.75;11290494;26;20010;-67
2024/04/15 00:50:39;;;;;;;1999.90;999.90;;;;;;;10.09;94.11;101340.13;11259513;26;20007;-67
2024/04/15 00:55:43;;;;;;;1999.90;999.90;;;;;;;9.71;93.20;101333.09;11290312;26;20009;-66
2024/04/15 01:00:45;;;;;;;1999.90;999.90;;;;;;;9.49;96.94;101326.22;11258211;26;20470;-67
2024/04/15 01:05:49;;;;;;;1999.90;999.90;;;;;;;9.00;97.96;101312.69;11258457;26;20352;-67
2024/04/15 01:10:52;;;;;;;1999.90;999.90;;;;;;;9.45;97.17;101308.16;11289441;26;20042;-67
2024/04/15 01:16:02;;;;;;;1999.90;999.90;;;;;;;9.77;92.62;101304.06;11289382;26;19998;-66
2024/04/15 01:21:04;;;;;;;1999.90;999.90;;;;;;;9.46;92.26;101296.75;11257929;26;20011;-66
2024/04/15 01:26:07;;;;;;;1999.90;999.90;;;;;;;9.65;90.20;101281.94;11257702;26;20009;-66
2024/04/15 01:31:09;;;;;;;1999.90;999.90;;;;;;;9.58;89.42;101287.53;11289201;26;20003;-66
2024/04/15 01:36:12;;;;;;;1999.90;999.90;;;;;;;9.31;91.38;101287.84;11289060;26;20014;-67
2024/04/15 01:41:14;;;;;;;1999.90;999.90;;;;;;;9.53;88.24;101285.13;11288219;26;20011;-67
2024/04/15 01:46:17;;;;;;;1999.90;999.90;;;;;;;9.68;87.80;101291.41;11257264;26;20066;-67
2024/04/15 01:51:20;;;;;;;1999.90;999.90;;;;;;;9.19;89.42;101286.59;11288441;26;19998;-67
2024/04/15 01:56:22;;;;;;;1999.90;999.90;;;;;;;9.20;89.61;101275.25;11257236;26;20014;-67
2024/04/15 02:01:24;;;;;;;1999.90;999.90;;;;;;;9.30;90.17;101276.53;11288103;26;20331;-67
2024/04/15 02:06:27;;;;;;;1999.90;999.90;;;;;;;9.39;89.26;101272.66;11288301;26;20523;-66
2024/04/15 02:11:29;;;;;;;1999.90;999.90;;;;;;;9.38;89.48;101257.91;11287745;26;20010;-66
2024/04/15 02:16:32;;;;;;;1999.90;999.90;;;;;;;9.47;89.33;101262.72;11256081;26;20346;-67
2024/04/15 02:21:34;;;;;;;1999.90;999.90;;;;;;;9.70;86.81;101225.97;11287728;26;20009;-66
2024/04/15 02:26:37;;;;;;;1999.90;999.90;;;;;;;9.71;87.81;101225.06;11286938;26;20010;-67
2024/04/15 02:31:39;;;;;;;1999.90;999.90;;;;;;;9.59;88.40;101216.03;11256438;26;20081;-66
2024/04/15 02:36:42;;;;;;;1999.90;999.90;;;;;;;9.59;88.80;101214.25;11287230;26;19998;-67
2024/04/15 02:41:44;;;;;;;1999.90;999.90;;;;;;;9.72;87.70;101208.47;11255496;26;19999;-66
2024/04/15 02:46:47;;;;;;;1999.90;999.90;;;;;;;9.32;87.81;101194.63;11255280;26;19999;-66
2024/04/15 02:51:51;;;;;;;1999.90;999.90;;;;;;;9.55;87.31;101186.56;11287050;26;20086;-67
2024/04/15 02:56:54;;;;;;;1999.90;999.90;;;;;;;9.96;86.75;101191.59;11254903;26;20012;-66
2024/04/15 03:01:56;;;;;;;1999.90;999.90;;;;;;;9.09;88.92;101184.31;11286389;26;19999;-67
2024/04/15 03:06:59;;;;;;;1999.90;999.90;;;;;;;9.21;89.23;101182.91;11286579;26;20006;-67
2024/04/15 03:12:02;;;;;;;1999.90;999.90;;;;;;;9.30;89.47;101177.25;11286118;26;19999;-66
2024/04/15 03:17:04;;;;;;;1999.90;999.90;;;;;;;9.38;88.86;101169.06;11286424;26;19999;-67
2024/04/15 03:22:08;;;;;;;1999.90;999.90;;;;;;;9.26;89.80;101154.81;11286069;26;19999;-66
2024/04/15 03:27:11;;;;;;;1999.90;999.90;;;;;;;9.14;90.16;101154.50;11286478;26;20075;-66
2024/04/15 03:32:13;;;;;;;1999.90;999.90;;;;;;;9.27;88.63;101146.03;11285840;26;20450;-66
2024/04/15 03:37:16;;;;;;;1999.90;999.90;;;;;;;9.36;88.08;101131.69;11285585;26;19999;-66
2024/04/15 03:42:18;;;;;;;1999.90;999.90;;;;;;;9.07;87.88;101131.28;11209545;26;19999;-67
2024/04/15 03:47:21;;;;;;;1999.90;999.90;;;;;;;8.98;90.38;101113.41;11210703;26;20421;-66
2024/04/15 03:52:23;;;;;;;1999.90;999.90;;;;;;;8.91;88.96;101099.78;11209168;26;19999;-66
2024/04/15 03:57:26;;;;;;;1999.90;999.90;;;;;;;9.12;89.34;101094.50;11210606;26;20347;-66
2024/04/15 04:02:28;;;;;;;1999.90;999.90;;;;;;;8.61;90.77;101094.19;11208837;26;20003;-66
2024/04/15 04:07:32;;;;;;;1999.90;999.90;;;;;;;8.78;91.23;101077.78;11208182;26;20023;-66
2024/04/15 04:12:34;;;;;;;1999.90;999.90;;;;;;;9.09;89.80;101072.00;11208116;26;20013;-67
2024/04/15 04:17:37;;;;;;;1999.90;999.90;;;;;;;9.04;91.60;101070.50;11178662;26;20000;-67
2024/04/15 04:22:40;;;;;;;1999.90;999.90;;;;;;;8.63;91.87;101060.19;11209478;26;20015;-67
2024/04/15 04:27:42;;;;;;;1999.90;999.90;;;;;;;8.61;92.65;101055.03;11207442;26;20347;-66
2024/04/15 04:32:45;;;;;;;1999.90;999.90;;;;;;;8.70;90.91;101053.78;11207387;26;19999;-66
2024/04/15 04:37:47;;;;;;;1999.90;999.90;;;;;;;8.48;93.71;101051.28;11208882;26;20010;-66
2024/04/15 04:42:50;;;;;;;1999.90;999.90;;;;;;;8.51;93.18;101046.78;11283558;26;20346;-66
2024/04/15 04:47:53;;;;;;;1999.90;999.90;;;;;;;8.42;92.74;101033.25;11282813;26;20076;-66
2024/04/15 04:52:56;;;;;;;1999.90;999.90;;;;;;;8.53;92.58;101025.81;11251515;26;20005;-66
2024/04/15 04:57:58;;;;;;;1999.90;999.90;;;;;;;8.79;91.88;101023.78;11282286;26;20341;-66
2024/04/15 05:03:01;;;;;;;1999.90;999.90;;;;;;;8.62;92.83;101028.00;11251025;26;20031;-66
2024/04/15 05:08:04;;;;;;;1999.90;999.90;;;;;;;9.07;93.18;101013.72;11251078;26;19999;-67
2024/04/15 05:13:06;;;;;;;1999.90;999.90;;;;;;;8.76;95.66;101006.50;11281804;26;20013;-66
2024/04/15 05:18:09;;;;;;;1999.90;999.90;;;;;;;8.80;93.53;101007.22;11286491;26;20013;-66
2024/04/15 05:23:12;;;;;;;1999.90;999.90;;;;;;;8.70;93.47;100997.19;11289125;26;20013;-66
2024/04/15 05:28:14;;;;;;;1999.90;999.90;;;;;;;8.74;95.58;100993.53;11289085;26;20341;-67
2024/04/15 05:33:17;;;;;;;1999.90;999.90;;;;;;;8.74;94.59;100990.03;11289029;26;20445;-67
2024/04/15 05:38:19;;;;;;;1999.90;999.90;;;;;;;9.04;93.54;100985.13;11257450;26;19998;-66
2024/04/15 05:43:22;;;;;;;1999.90;999.90;;;;;;;8.53;95.27;100986.69;11288728;26;20013;-66
2024/04/15 05:48:24;;;;;;;1999.90;999.90;;;;;;;8.66;96.13;100979.16;11288561;26;19999;-66
2024/04/15 05:53:27;;;;;;;1999.90;999.90;;;;;;;8.78;95.49;100977.72;11313146;21;20041;-67
2024/04/15 05:58:29;;;;;;;1999.90;999.90;;;;;;;8.95;95.48;100971.69;11331777;26;20030;-66
2024/04/15 06:03:32;;;;;;;1999.90;999.90;;;;;;;8.93;94.79;100974.38;11331415;26;19999;-67
2024/04/15 06:08:34;;;;;;;1999.90;999.90;;;;;;;9.02;93.11;100973.09;11362989;26;19998;-66
2024/04/15 06:13:37;;;;;;;1999.90;999.90;;;;;;;8.73;94.85;100957.88;11363571;26;20010;-66
2024/04/15 06:18:39;;;;;;;1999.90;999.90;;;;;;;9.01;92.24;100955.72;11363039;26;19998;-66
2024/04/15 06:23:43;;;;;;;1999.90;999.90;;;;;;;9.26;91.83;100951.00;11331194;26;19998;-67
2024/04/15 06:28:45;;;;;;;1999.90;999.90;;;;;;;9.09;91.06;100940.53;11361108;26;20002;-66
2024/04/15 06:33:48;;;;;;;1999.90;999.90;;;;;;;9.27;92.62;100930.94;11362739;26;19998;-67
2024/04/15 06:38:50;;;;;;;1999.90;999.90;;;;;;;9.37;91.20;100926.94;11330641;26;20002;-67
2024/04/15 06:43:52;;;;;;;1999.90;999.90;;;;;;;9.30;91.74;100915.97;11330763;26;20464;-67
2024/04/15 06:48:55;;;;;;;1999.90;999.90;;;;;;;9.55;89.17;100914.72;11330241;26;19998;-67
2024/04/15 06:53:57;;;;;;;1999.90;999.90;;;;;;;9.73;88.68;100886.75;11330412;26;20070;-67
2024/04/15 06:59:00;;;;;;;1999.90;999.90;;;;;;;9.64;86.37;100882.88;11330357;26;19998;-67
2024/04/15 07:04:03;;;;;;;1999.90;999.90;;;;;;;9.93;85.17;100864.78;11300566;26;19998;-67
2024/04/15 07:09:05;;;;;;;1999.90;999.90;;;;;;;10.09;83.68;100866.59;11329868;26;20354;-67
2024/04/15 07:14:08;;;;;;;1999.90;999.90;;;;;;;10.52;81.59;100856.41;11300101;26;20338;-67
2024/04/15 07:19:10;;;;;;;1999.90;999.90;;;;;;;10.55;80.38;100846.59;11361637;26;19994;-67
2024/04/15 07:24:13;;;;;;;1999.90;999.90;;;;;;;11.20;77.85;100832.41;11361362;26;19998;-67
2024/04/15 07:29:15;;;;;;;1999.90;999.90;;;;;;;11.58;76.68;100813.50;11361373;26;20082;-67
2024/04/15 07:34:20;;;;;;;1999.90;999.90;;;;;;;11.16;76.36;100817.78;11361159;26;20022;-67
2024/04/15 07:39:22;;;;;;;1999.90;999.90;;;;;;;10.92;74.95;100807.81;11360153;26;20002;-66
2024/04/15 07:44:25;;;;;;;1999.90;999.90;;;;;;;11.30;75.29;100791.59;11360896;26;20454;-67
2024/04/15 07:49:27;;;;;;;1999.90;999.90;;;;;;;11.48;74.85;100787.03;11360503;26;19998;-67
2024/04/15 07:54:30;;;;;;;1999.90;999.90;;;;;;;12.01;74.08;100775.91;11360492;26;20326;-67
2024/04/15 07:59:32;;;;;;;1999.90;999.90;;;;;;;11.87;74.49;100758.41;11359947;26;20009;-67
2024/04/15 08:04:36;;;;;;;1999.90;999.90;;;;;;;11.69;72.74;100752.53;11360243;26;19998;-67
2024/04/15 08:09:39;;;;;;;1999.90;999.90;;;;;;;12.38;71.23;100739.41;11359574;26;19998;-67
2024/04/15 08:14:42;;;;;;;1999.90;999.90;;;;;;;12.01;71.36;100747.88;11359948;26;19998;-67
2024/04/15 08:19:45;;;;;;;1999.90;999.90;;;;;;;11.88;69.68;100720.72;11359559;26;20034;-67
2024/04/15 08:24:48;;;;;;;1999.90;999.90;;;;;;;12.32;69.54;100730.13;11359406;26;20013;-68
2024/04/15 08:29:50;;;;;;;1999.90;999.90;;;;;;;13.00;67.75;100709.84;11358457;26;20008;-68
2024/04/15 08:34:54;;;;;;;1999.90;999.90;;;;;;;12.33;67.55;100696.88;11358422;26;20347;-67
2024/04/15 08:39:56;;;;;;;1999.90;999.90;;;;;;;11.92;69.82;100697.78;11358553;26;20454;-67
2024/04/15 08:45:00;;;;;;;1999.90;999.90;;;;;;;12.47;69.82;100670.50;11358283;26;20348;-67
2024/04/15 08:50:04;;;;;;;1999.90;999.90;;;;;;;12.42;68.75;100659.47;11326269;26;20009;-68
2024/04/15 08:55:08;;;;;;;1999.90;999.90;;;;;;;12.38;67.82;100637.84;11365514;26;19998;-67
2024/04/15 09:00:14;;;;;;;1999.90;999.90;;;;;;;13.10;68.31;100634.66;11365612;26;20448;-67
2024/04/15 09:05:17;;;;;;;1999.90;999.90;;;;;;;13.82;65.88;100638.31;11365418;26;20009;-67
2024/04/15 09:10:19;;;;;;;1999.90;999.90;;;;;;;13.90;64.46;100607.03;11365137;26;20014;-67
2024/04/15 09:15:25;;;;;;;1999.90;999.90;;;;;;;13.20;64.83;100605.94;11365259;26;20433;-67
2024/04/15 09:20:28;;;;;;;1999.90;999.90;;;;;;;13.44;64.53;100587.59;11333526;26;20010;-67
2024/04/15 09:25:51;;;;;;;1999.90;999.90;;;;;;;13.43;63.05;100553.50;11338274;26;20013;-68
2024/04/15 09:30:53;;;;;;;1999.90;999.90;;;;;;;14.61;62.06;100536.69;11364524;26;19998;-68
2024/04/15 09:35:56;;;;;;;1999.90;999.90;;;;;;;15.59;58.17;100519.19;11332966;26;20002;-67
2024/04/15 09:40:59;;;;;;;1999.90;999.90;;;;;;;16.20;56.12;100504.44;11364147;26;19998;-68
2024/04/15 09:46:04;;;;;;;1999.90;999.90;;;;;;;14.90;58.97;100488.72;11331766;26;19998;-68
2024/04/15 09:51:07;;;;;;;1999.90;999.90;;;;;;;14.58;60.52;100488.66;11364040;26;20006;-67
2024/04/15 09:56:21;;;;;;;1999.90;999.90;;;;;;;14.53;59.59;100464.47;11363670;26;20341;-68
2024/04/15 10:01:31;;;;;;;1999.90;999.90;;;;;;;14.83;60.71;100466.47;11331555;26;20009;-67
2024/04/15 10:06:51;;;;;;;1999.90;999.90;;;;;;;13.84;59.23;100454.88;11332341;26;20013;-68
2024/04/15 10:11:54;;;;;;;1999.90;999.90;;;;;;;14.26;57.62;100420.91;11333356;26;19998;-67
2024/04/15 10:16:56;;;;;;;1999.90;999.90;;;;;;;13.86;59.56;100418.75;11363268;26;19998;-67
2024/04/15 10:22:00;;;;;;;1999.90;999.90;;;;;;;13.73;60.82;100395.16;11331568;26;20010;-67
2024/04/15 10:27:03;;;;;;;1999.90;999.90;;;;;;;13.30;60.44;100386.13;11363204;26;20006;-67
2024/04/15 10:32:07;;;;;;;1999.90;999.90;;;;;;;12.76;63.80;100376.09;11330725;26;20074;-67
2024/04/15 10:37:15;;;;;;;1999.90;999.90;;;;;;;13.15;67.61;100353.94;11331101;26;20010;-67
2024/04/15 10:42:17;;;;;;;1999.90;999.90;;;;;;;13.31;66.00;100332.56;11362608;26;19998;-67
2024/04/15 10:47:21;;;;;;;1999.90;999.90;;;;;;;12.67;64.47;100303.25;11362216;26;20008;-67
2024/04/15 10:52:24;;;;;;;1999.90;999.90;;;;;;;12.55;65.60;100297.94;11330709;26;20042;-67
2024/04/15 10:57:26;;;;;;;1999.90;999.90;;;;;;;12.72;65.46;100273.06;11361914;26;20006;-67
2024/04/15 11:02:29;;;;;;;1999.90;999.90;;;;;;;12.81;67.87;100264.50;11361919;26;20008;-67
2024/04/15 11:07:31;;;;;;;1999.90;999.90;;;;;;;11.84;70.32;100273.31;11361533;26;19998;-67
2024/04/15 11:12:34;;;;;;;1999.90;999.90;;;;;;;11.53;75.24;100252.72;11361591;26;20337;-68
2024/04/15 11:17:45;;;;;;;1999.90;999.90;;;;;;;11.79;79.37;100223.81;11328660;26;19998;-66
2024/04/15 11:22:48;;;;;;;1999.90;999.90;;;;;;;11.75;80.70;100209.25;11361542;26;19998;-66
2024/04/15 11:27:53;;;;;;;1999.90;999.90;;;;;;;11.82;81.91;100184.25;11360790;26;20010;-66
2024/04/15 11:32:59;;;;;;;1999.90;999.90;;;;;;;11.51;81.56;100189.06;11361108;26;20394;-66
2024/04/15 11:38:02;;;;;;;1999.90;999.90;;;;;;;11.63;82.00;100190.00;11329091;26;19998;-66
2024/04/15 11:43:05;;;;;;;1999.90;999.90;;;;;;;10.81;90.19;100178.25;11360601;26;20030;-64
2024/04/15 11:48:08;;;;;;;1999.90;999.90;;;;;;;10.41;95.93;100200.94;11360930;26;19998;-64
2024/04/15 11:53:10;;;;;;;1999.90;999.90;;;;;;;10.66;96.50;100194.06;11328564;26;20374;-65
2024/04/15 11:58:13;;;;;;;1999.90;999.90;;;;;;;10.73;100.00;100189.25;11360377;26;19998;-64
2024/04/15 12:03:21;;;;;;;1999.90;999.90;;;;;;;11.00;100.00;100173.44;11360463;26;19998;-64
2024/04/15 12:08:24;;;;;;;1999.90;999.90;;;;;;;10.86;100.00;100147.34;11328628;26;20457;-65
2024/04/15 12:13:26;;;;;;;1999.90;999.90;;;;;;;10.52;100.00;100131.31;11360017;26;20002;-65
2024/04/15 12:18:29;;;;;;;1999.90;999.90;;;;;;;10.46;100.00;100113.44;11327893;26;20004;-64
2024/04/15 12:23:31;;;;;;;1999.90;999.90;;;;;;;10.54;100.00;100098.03;11359563;26;19994;-64
2024/04/15 12:28:34;;;;;;;1999.90;999.90;;;;;;;10.67;100.00;100067.44;11304742;26;20472;-64
2024/04/15 12:33:36;;;;;;;1999.90;999.90;;;;;;;10.87;100.00;100044.28;11367120;26;20013;-64
2024/04/15 12:38:39;;;;;;;1999.90;999.90;;;;;;;10.76;100.00;100011.00;11366402;26;19998;-65
2024/04/15 12:43:41;;;;;;;1999.90;999.90;;;;;;;10.31;100.00;100014.06;11334459;26;19998;-65
2024/04/15 12:48:44;;;;;;;1999.90;999.90;;;;;;;10.98;100.00;99989.34;11365869;26;19998;-65
2024/04/15 12:53:46;;;;;;;1999.90;999.90;;;;;;;10.65;100.00;99963.81;11365805;26;20010;-64
2024/04/15 12:58:49;;;;;;;1999.90;999.90;;;;;;;10.74;100.00;99953.50;11333719;26;19998;-65
2024/04/15 13:03:51;;;;;;;1999.90;999.90;;;;;;;10.57;100.00;99946.88;11365576;26;20012;-64
2024/04/15 13:08:55;;;;;;;1999.90;999.90;;;;;;;10.18;100.00;99940.81;11365261;26;19998;-64
2024/04/15 13:13:57;;;;;;;1999.90;999.90;;;;;;;10.49;100.00;99906.44;11365488;26;20465;-64
2024/04/15 13:19:00;;;;;;;1999.90;999.90;;;;;;;10.43;100.00;99894.66;11365017;26;19998;-65
2024/04/15 13:24:03;;;;;;;1999.90;999.90;;;;;;;10.24;100.00;99900.31;11333372;26;20030;-65
2024/04/15 13:29:05;;;;;;;1999.90;999.90;;;;;;;10.19;100.00;99869.25;11333094;26;20009;-64
2024/04/15 13:34:10;;;;;;;1999.90;999.90;;;;;;;10.39;100.00;99906.28;11364915;26;20074;-64
2024/04/15 13:39:13;;;;;;;1999.90;999.90;;;;;;;6.52;100.00;100029.09;11332292;26;19998;-63
2024/04/15 13:44:16;;;;;;;1999.90;999.90;;;;;;;7.40;100.00;100016.53;11364489;26;20345;-63
2024/04/15 13:49:19;;;;;;;1999.90;999.90;;;;;;;5.93;100.00;100015.63;11332297;26;20001;-64
2024/04/15 13:54:22;;;;;;;1999.90;999.90;;;;;;;6.07;100.00;100018.41;11363777;26;20441;-64
2024/04/15 13:59:24;;;;;;;1999.90;999.90;;;;;;;6.10;100.00;100012.22;11364480;26;19998;-64
2024/04/15 14:04:27;;;;;;;1999.90;999.90;;;;;;;5.97;100.00;99998.16;11332000;26;20460;-64
2024/04/15 14:09:30;;;;;;;1999.90;999.90;;;;;;;5.71;100.00;99995.09;11363516;26;20002;-64
2024/04/15 14:14:32;;;;;;;1999.90;999.90;;;;;;;5.39;100.00;99979.34;11363692;26;20017;-64
2024/04/15 14:19:37;;;;;;;1999.90;999.90;;;;;;;5.47;100.00;99987.59;11363002;26;19998;-64
2024/04/15 14:24:40;;;;;;;1999.90;999.90;;;;;;;6.19;100.00;100016.94;11363103;26;19998;-64
2024/04/15 14:29:42;;;;;;;1999.90;999.90;;;;;;;6.36;100.00;100004.84;11363059;26;20378;-64
2024/04/15 14:34:45;;;;;;;1999.90;999.90;;;;;;;6.39;100.00;99978.66;11362982;26;20006;-64
2024/04/15 14:39:51;;;;;;;1999.90;999.90;;;;;;;7.01;100.00;99979.63;11362676;26;20006;-65
2024/04/15 14:45:13;;;;;;;1999.90;999.90;;;;;;;7.09;100.00;99994.81;11336216;26;20026;-64
2024/04/15 14:50:16;;;;;;;1999.90;999.90;;;;;;;7.46;100.00;99990.13;11360808;26;20012;-64
2024/04/15 14:55:18;;;;;;;1999.90;999.90;;;;;;;7.21;100.00;99975.91;11362434;26;20464;-64
2024/04/15 15:00:21;;;;;;;1999.90;999.90;;;;;;;7.73;100.00;99982.50;11361941;26;20006;-64
2024/04/15 15:05:23;;;;;;;1999.90;999.90;;;;;;;6.92;100.00;99998.34;11361861;26;20008;-65
2024/04/15 15:10:26;;;;;;;1999.90;999.90;;;;;;;7.08;100.00;99980.13;11361865;26;19998;-64
2024/04/15 15:15:28;;;;;;;1999.90;999.90;;;;;;;8.27;100.00;99994.94;11361922;26;20009;-65
2024/04/15 15:20:31;;;;;;;1999.90;999.90;;;;;;;9.07;100.00;100000.44;11361102;26;20034;-65
2024/04/15 15:25:33;;;;;;;1999.90;999.90;;;;;;;9.08;100.00;99983.00;11361576;26;20323;-65
2024/04/15 15:30:36;;;;;;;1999.90;999.90;;;;;;;8.72;100.00;99985.25;11361233;26;19997;-64
2024/04/15 15:35:39;;;;;;;1999.90;999.90;;;;;;;8.54;100.00;99984.63;11361097;26;20002;-65
2024/04/15 15:40:42;;;;;;;1999.90;999.90;;;;;;;9.30;100.00;99983.28;11360997;26;20034;-65
2024/04/15 15:45:44;;;;;;;1999.90;999.90;;;;;;;9.22;100.00;99980.34;11360658;26;19998;-65
2024/04/15 15:50:50;;;;;;;1999.90;999.90;;;;;;;8.68;100.00;99986.34;11360490;26;20006;-65
2024/04/15 15:55:53;;;;;;;1999.90;999.90;;;;;;;8.77;100.00;100005.00;11360588;26;20374;-64
2024/04/15 16:00:55;;;;;;;1999.90;999.90;;;;;;;8.19;100.00;99999.78;11359548;26;19998;-65
2024/04/15 16:05:58;;;;;;;1999.90;999.90;;;;;;;8.88;100.00;100003.38;11328324;26;19998;-64
2024/04/15 16:11:00;;;;;;;1999.90;999.90;;;;;;;8.85;98.47;100010.56;11359597;26;20009;-65
2024/04/15 16:16:05;;;;;;;1999.90;999.90;;;;;;;9.56;95.53;100019.09;11359736;26;19998;-65
2024/04/15 16:21:07;;;;;;;1999.90;999.90;;;;;;;9.00;94.86;100017.44;11360245;26;20407;-65
2024/04/15 16:26:10;;;;;;;1999.90;999.90;;;;;;;8.65;93.05;100012.63;11359281;26;20016;-65
2024/04/15 16:31:13;;;;;;;1999.90;999.90;;;;;;;8.39;92.39;100027.25;11359295;26;19994;-65
2024/04/15 16:36:15;;;;;;;1999.90;999.90;;;;;;;8.63;90.27;100031.94;11359529;26;20007;-65
2024/04/15 16:41:18;;;;;;;1999.90;999.90;;;;;;;8.83;84.37;100026.31;11358888;26;20340;-65
2024/04/15 16:46:21;;;;;;;1999.90;999.90;;;;;;;8.77;81.67;100023.25;11358406;26;19998;-65
2024/04/15 16:51:24;;;;;;;1999.90;999.90;;;;;;;8.37;89.20;100023.88;11358110;26;20009;-64
2024/04/15 16:56:27;;;;;;;1999.90;999.90;;;;;;;8.16;85.44;100037.28;11388697;26;20017;-65
2024/04/15 17:01:29;;;;;;;1999.90;999.90;;;;;;;7.74;88.76;100074.53;11433893;26;20467;-64
2024/04/15 17:06:33;;;;;;;1999.90;999.90;;;;;;;7.40;98.26;100073.81;11434045;26;20008;-64
2024/04/15 17:11:35;;;;;;;1999.90;999.90;;;;;;;7.18;100.00;100071.56;11434496;26;20340;-65
2024/04/15 17:16:37;;;;;;;1999.90;999.90;;;;;;;7.07;100.00;100069.53;11441539;26;20008;-65
2024/04/15 17:21:40;;;;;;;1999.90;999.90;;;;;;;7.18;100.00;100058.56;11442643;26;19997;-64
2024/04/15 17:26:43;;;;;;;1999.90;999.90;;;;;;;6.76;99.94;100073.81;11441276;26;20008;-65
2024/04/15 17:31:46;;;;;;;1999.90;999.90;;;;;;;7.21;99.46;100076.59;11440759;26;20029;-65
2024/04/15 17:36:48;;;;;;;1999.90;999.90;;;;;;;7.66;100.00;100089.75;11439615;26;20006;-64
2024/04/15 17:41:51;;;;;;;1999.90;999.90;;;;;;;7.16;98.05;100102.03;11440996;26;19997;-64
2024/04/15 17:46:53;;;;;;;1999.90;999.90;;;;;;;6.88;100.00;100093.94;11440360;26;20345;-65
2024/04/15 17:51:56;;;;;;;1999.90;999.90;;;;;;;7.19;100.00;100107.09;11408435;26;20049;-65
2024/04/15 17:56:58;;;;;;;1999.90;999.90;;;;;;;7.31;100.00;100105.56;11369307;26;20074;-64
2024/04/15 18:02:01;;;;;;;1999.90;999.90;;;;;;;7.16;98.12;100092.47;11363827;26;20013;-65
2024/04/15 18:07:04;;;;;;;1999.90;999.90;;;;;;;6.65;100.00;100096.94;11332184;26;20074;-65
2024/04/15 18:12:07;;;;;;;1999.90;999.90;;;;;;;6.94;99.89;100097.16;11370890;21;20017;-62
2024/04/15 18:17:10;;;;;;;1999.90;999.90;;;;;;;6.74;100.00;100109.47;11363730;26;20002;-62
2024/04/15 18:22:13;;;;;;;1999.90;999.90;;;;;;;6.49;100.00;100120.31;11361517;26;20005;-63
2024/04/15 18:27:17;;;;;;;1999.90;999.90;;;;;;;6.53;100.00;100124.41;11363360;26;20013;-61
2024/04/15 18:32:20;;;;;;;1999.90;999.90;;;;;;;6.62;100.00;100136.97;11363119;26;20006;-62
2024/04/15 18:37:22;;;;;;;1999.90;999.90;;;;;;;6.49;100.00;100141.09;11362922;26;20034;-62
2024/04/15 18:42:25;;;;;;;1999.90;999.90;;;;;;;6.96;100.00;100148.22;11362698;26;20010;-62
2024/04/15 18:47:27;;;;;;;1999.90;999.90;;;;;;;6.78;99.98;100155.22;11362334;26;20333;-62
2024/04/15 18:52:30;;;;;;;1999.90;999.90;;;;;;;6.44;98.64;100163.88;11362590;26;20006;-62
2024/04/15 18:57:32;;;;;;;1999.90;999.90;;;;;;;6.70;96.89;100149.56;11362357;26;19998;-62
2024/04/15 19:02:35;;;;;;;1999.90;999.90;;;;;;;6.96;96.63;100170.78;11360516;26;20340;-62
2024/04/15 19:07:38;;;;;;;1999.90;999.90;;;;;;;6.67;100.00;100165.31;11360367;26;19998;-62
2024/04/15 19:12:41;;;;;;;1999.90;999.90;;;;;;;6.26;100.00;100158.69;11359922;26;20026;-61
2024/04/15 19:17:43;;;;;;;1999.90;999.90;;;;;;;6.31;100.00;100148.91;11361554;26;19998;-62
2024/04/15 19:22:46;;;;;;;1999.90;999.90;;;;;;;6.02;100.00;100154.69;11361480;26;20002;-62
2024/04/15 19:27:48;;;;;;;1999.90;999.90;;;;;;;5.71;100.00;100164.75;11361374;26;19998;-63
2024/04/15 19:32:51;;;;;;;1999.90;999.90;;;;;;;6.04;100.00;100161.50;11360973;26;19998;-62
2024/04/15 19:37:54;;;;;;;1999.90;999.90;;;;;;;5.84;100.00;100161.59;11359959;26;19998;-62
2024/04/15 19:42:58;;;;;;;1999.90;999.90;;;;;;;6.00;100.00;100162.59;11359184;26;20449;-62
2024/04/15 19:48:01;;;;;;;1999.90;999.90;;;;;;;6.17;100.00;100172.16;11329047;26;20013;-62
2024/04/15 19:53:04;;;;;;;1999.90;999.90;;;;;;;6.55;100.00;100202.38;11360525;26;20045;-62
2024/04/15 19:58:06;;;;;;;1999.90;999.90;;;;;;;5.21;100.00;100243.19;11360357;26;20013;-61
2024/04/15 20:03:09;;;;;;;1999.90;999.90;;;;;;;5.22;100.00;100232.75;11360275;26;20395;-61
2024/04/15 20:08:11;;;;;;;1999.90;999.90;;;;;;;5.28;100.00;100236.00;11359869;26;20613;-61
2024/04/15 20:13:23;;;;;;;1999.90;999.90;;;;;;;5.20;100.00;100250.16;11360071;26;20002;-61
2024/04/15 20:18:42;;;;;;;1999.90;999.90;;;;;;;4.93;100.00;100256.56;11359673;26;20010;-61
2024/04/15 20:23:45;;;;;;;1999.90;999.90;;;;;;;5.01;100.00;100267.44;11359443;26;20534;-61
2024/04/15 20:28:47;;;;;;;1999.90;999.90;;;;;;;4.65;100.00;100275.84;11360026;26;20009;-61
2024/04/15 20:33:50;;;;;;;1999.90;999.90;;;;;;;4.75;100.00;100276.31;11358795;26;20013;-62
2024/04/15 20:38:53;;;;;;;1999.90;999.90;;;;;;;4.62;100.00;100250.91;11359014;26;20030;-62
2024/04/15 20:43:56;;;;;;;1999.90;999.90;;;;;;;4.72;100.00;100221.97;11358675;26;20012;-62
2024/04/15 20:48:58;;;;;;;1999.90;999.90;;;;;;;4.92;100.00;100221.97;11362345;26;20461;-61
2024/04/15 20:54:01;;;;;;;1999.90;999.90;;;;;;;4.70;100.00;100185.72;11366093;26;20348;-62
2024/04/15 20:59:04;;;;;;;1999.90;999.90;;;;;;;4.72;100.00;100189.09;11365642;26;20344;-62
2024/04/15 21:04:06;;;;;;;1999.90;999.90;;;;;;;5.00;100.00;100169.75;11363998;26;20012;-62
2024/04/15 21:09:24;;;;;;;1999.90;999.90;;;;;;;5.10;100.00;100167.59;11365227;26;20340;-62
2024/04/15 21:14:26;;;;;;;1999.90;999.90;;;;;;;5.34;100.00;100168.22;11365488;26;19998;-62
2024/04/15 21:19:29;;;;;;;1999.90;999.90;;;;;;;5.04;100.00;100184.25;11365179;26;20465;-63
2024/04/15 21:24:31;;;;;;;1999.90;999.90;;;;;;;5.09;100.00;100176.28;11365193;26;20010;-62
2024/04/15 21:29:35;;;;;;;1999.90;999.90;;;;;;;5.33;100.00;100175.19;11364613;26;19998;-62
2024/04/15 21:34:37;;;;;;;1999.90;999.90;;;;;;;5.18;100.00;100155.97;11363236;26;20017;-62
2024/04/15 21:39:40;;;;;;;1999.90;999.90;;;;;;;5.44;100.00;100160.88;11363002;26;20345;-63
2024/04/15 21:44:42;;;;;;;1999.90;999.90;;;;;;;5.01;100.00;100148.09;11364473;26;20012;-62
2024/04/15 21:49:45;;;;;;;1999.90;999.90;;;;;;;4.92;100.00;100143.31;11362790;26;19998;-62
2024/04/15 21:54:47;;;;;;;1999.90;999.90;;;;;;;5.16;100.00;100143.94;11363801;26;20469;-62
2024/04/15 21:59:50;;;;;;;1999.90;999.90;;;;;;;5.05;100.00;100146.22;11363416;26;20034;-63
2024/04/15 22:04:53;;;;;;;1999.90;999.90;;;;;;;5.58;100.00;100143.75;11364506;26;20463;-63